Jomi — C6VK4 — position and weather

sailwx.info

Track history (hours):
 
Tides and Currents Weather Stations Pressure Air Temp Water Temp Dewpoint Dewpoint Depression Visibility Wind Speed Wind Dir Waves Ship Positions

Jomi

Last reported at 2015-Feb-28 21:16 UTC. Time now 2015-Mar-01 04:30 UTC.
Position N 65°05' E 011°47'.

Length 88 m; draft 4.8 m.

Type: Cargo ship. MMSI: 309701000.

Date/timePositionNaut miles runAvg speedWind from/ knotsBaromVisibWave heightAir tempDewpointWater temp
2015-Feb-28 21:16N 65°05' E 011°47'710.5
2015-Feb-28 20:34N 65°01' E 011°33'1110.8
2015-Feb-28 19:34N 64°52' E 011°17'8211.0
2015-Feb-28 12:05N 63°48' E 009°17'711.8
2015-Feb-28 11:31N 63°42' E 009°15'14 9.6
2015-Feb-28 10:03N 63°39' E 009°46'611.7
2015-Feb-28 09:33N 63°34' E 009°51'1110.9
2015-Feb-28 08:34N 63°23' E 009°58'5 5.3
2015-Feb-28 07:33N 63°19' E 009°51'0 0.0
2015-Feb-28 06:33N 63°19' E 009°51'0 0.0
2015-Feb-27 17:05N 63°19' E 009°51'0 0.0
2015-Feb-27 16:32N 63°19' E 009°51'0 0.0
2015-Feb-27 15:32N 63°19' E 009°51'0 0.0
2015-Feb-27 14:32N 63°19' E 009°51'0 0.0
2015-Feb-27 13:32N 63°19' E 009°51'0 0.0
2015-Feb-27 12:23N 63°19' E 009°51'0 0.0
2015-Feb-27 11:29N 63°19' E 009°51'0 0.0
2015-Feb-27 10:32N 63°19' E 009°51'0 0.0
2015-Feb-27 09:32N 63°19' E 009°51'0 0.0
2015-Feb-27 08:32N 63°19' E 009°51'0 0.0
2015-Feb-27 07:32N 63°19' E 009°51'1 0.5
2015-Feb-27 05:15N 63°20' E 009°52'5 6.7
2015-Feb-27 04:33N 63°23' E 009°59'9 8.9
2015-Feb-27 03:33N 63°28' E 010°16'4 4.1
2015-Feb-27 02:33N 63°27' E 010°25'0 0.0
2015-Feb-27 01:33N 63°27' E 010°25'0 0.0
2015-Feb-27 00:33N 63°27' E 010°25'0 0.0
2015-Feb-26 23:32N 63°27' E 010°25'0 0.0
2015-Feb-26 22:32N 63°27' E 010°25'0 0.0
2015-Feb-26 21:32N 63°27' E 010°25'0 0.0
2015-Feb-26 20:32N 63°27' E 010°25'0 0.0
2015-Feb-26 19:32N 63°27' E 010°25'0 0.0
2015-Feb-26 18:32N 63°27' E 010°25'0 0.0
2015-Feb-26 17:32N 63°27' E 010°25'0 0.0
2015-Feb-26 16:32N 63°27' E 010°25'0 0.0
2015-Feb-26 15:32N 63°27' E 010°25'0 0.0
2015-Feb-26 14:32N 63°27' E 010°25'0 0.0
2015-Feb-26 13:32N 63°27' E 010°25'0 0.0
2015-Feb-26 12:29N 63°27' E 010°25'0 0.0
2015-Feb-26 11:32N 63°27' E 010°25'0 0.0
2015-Feb-26 10:32N 63°27' E 010°25'0 0.0
2015-Feb-26 09:32N 63°27' E 010°25'0 0.0
2015-Feb-26 08:32N 63°27' E 010°25'0 0.0
2015-Feb-26 07:32N 63°27' E 010°25'0 0.0
2015-Feb-26 06:32N 63°27' E 010°25'0 0.0
2015-Feb-26 05:32N 63°27' E 010°25'0 0.0
2015-Feb-26 04:32N 63°27' E 010°25'0 0.0
2015-Feb-26 03:32N 63°27' E 010°25'0 0.0
2015-Feb-26 02:32N 63°27' E 010°25'0 0.0
2015-Feb-26 01:32N 63°27' E 010°25'6 5.7
2015-Feb-26 00:33N 63°28' E 010°13'10 9.7
2015-Feb-25 23:33N 63°32' E 009°53'  
2015-Feb-22 18:24N 59°05' E 004°53'5 6.0
2015-Feb-22 17:33N 59°01' E 004°58'8 7.9
2015-Feb-22 16:33N 58°54' E 005°06'10 9.8
2015-Feb-22 15:33N 58°46' E 005°15'440 9.0
2015-Feb-20 14:32N 51°37' E 002°22'1313.1
2015-Feb-20 13:33N 51°27' E 002°09'1312.7
2015-Feb-20 12:33N 51°18' E 001°56'1212.4
2015-Feb-20 11:33N 51°08' E 001°43'1111.4
2015-Feb-20 10:33N 50°58' E 001°34'  
Track history (hours):
 
Tides and Currents Weather Stations Pressure Air Temp Water Temp Dewpoint Dewpoint Depression Visibility Wind Speed Wind Dir Waves Ship Positions

Jomi

Last reported at 2015-Feb-28 21:16 UTC. Time now 2015-Mar-01 04:30 UTC.
Position N 65°05' E 011°47'.

Length 88 m; draft 4.8 m.

Type: Cargo ship. MMSI: 309701000.

Date/timePositionNaut miles runAvg speedWind from/ knotsBaromVisibWave heightAir tempDewpointWater temp
2015-Feb-28 21:16N 65°05' E 011°47'710.5
2015-Feb-28 20:34N 65°01' E 011°33'1110.8
2015-Feb-28 19:34N 64°52' E 011°17'8211.0
2015-Feb-28 12:05N 63°48' E 009°17'711.8
2015-Feb-28 11:31N 63°42' E 009°15'14 9.6
2015-Feb-28 10:03N 63°39' E 009°46'611.7
2015-Feb-28 09:33N 63°34' E 009°51'1110.9
2015-Feb-28 08:34N 63°23' E 009°58'5 5.3
2015-Feb-28 07:33N 63°19' E 009°51'0 0.0
2015-Feb-28 06:33N 63°19' E 009°51'0 0.0
2015-Feb-27 17:05N 63°19' E 009°51'0 0.0
2015-Feb-27 16:32N 63°19' E 009°51'0 0.0
2015-Feb-27 15:32N 63°19' E 009°51'0 0.0
2015-Feb-27 14:32N 63°19' E 009°51'0 0.0
2015-Feb-27 13:32N 63°19' E 009°51'0 0.0
2015-Feb-27 12:23N 63°19' E 009°51'0 0.0
2015-Feb-27 11:29N 63°19' E 009°51'0 0.0
2015-Feb-27 10:32N 63°19' E 009°51'0 0.0
2015-Feb-27 09:32N 63°19' E 009°51'0 0.0
2015-Feb-27 08:32N 63°19' E 009°51'0 0.0
2015-Feb-27 07:32N 63°19' E 009°51'1 0.5
2015-Feb-27 05:15N 63°20' E 009°52'5 6.7
2015-Feb-27 04:33N 63°23' E 009°59'9 8.9
2015-Feb-27 03:33N 63°28' E 010°16'4 4.1
2015-Feb-27 02:33N 63°27' E 010°25'0 0.0
2015-Feb-27 01:33N 63°27' E 010°25'0 0.0
2015-Feb-27 00:33N 63°27' E 010°25'0 0.0
2015-Feb-26 23:32N 63°27' E 010°25'0 0.0
2015-Feb-26 22:32N 63°27' E 010°25'0 0.0
2015-Feb-26 21:32N 63°27' E 010°25'0 0.0
2015-Feb-26 20:32N 63°27' E 010°25'0 0.0
2015-Feb-26 19:32N 63°27' E 010°25'0 0.0
2015-Feb-26 18:32N 63°27' E 010°25'0 0.0
2015-Feb-26 17:32N 63°27' E 010°25'0 0.0
2015-Feb-26 16:32N 63°27' E 010°25'0 0.0
2015-Feb-26 15:32N 63°27' E 010°25'0 0.0
2015-Feb-26 14:32N 63°27' E 010°25'0 0.0
2015-Feb-26 13:32N 63°27' E 010°25'0 0.0
2015-Feb-26 12:29N 63°27' E 010°25'0 0.0
2015-Feb-26 11:32N 63°27' E 010°25'0 0.0
2015-Feb-26 10:32N 63°27' E 010°25'0 0.0
2015-Feb-26 09:32N 63°27' E 010°25'0 0.0
2015-Feb-26 08:32N 63°27' E 010°25'0 0.0
2015-Feb-26 07:32N 63°27' E 010°25'0 0.0
2015-Feb-26 06:32N 63°27' E 010°25'0 0.0
2015-Feb-26 05:32N 63°27' E 010°25'0 0.0
2015-Feb-26 04:32N 63°27' E 010°25'0 0.0
2015-Feb-26 03:32N 63°27' E 010°25'0 0.0
2015-Feb-26 02:32N 63°27' E 010°25'0 0.0
2015-Feb-26 01:32N 63°27' E 010°25'6 5.7
2015-Feb-26 00:33N 63°28' E 010°13'10 9.7
2015-Feb-25 23:33N 63°32' E 009°53'  
2015-Feb-22 18:24N 59°05' E 004°53'5 6.0
2015-Feb-22 17:33N 59°01' E 004°58'8 7.9
2015-Feb-22 16:33N 58°54' E 005°06'10 9.8
2015-Feb-22 15:33N 58°46' E 005°15'440 9.0
2015-Feb-20 14:32N 51°37' E 002°22'1313.1
2015-Feb-20 13:33N 51°27' E 002°09'1312.7
2015-Feb-20 12:33N 51°18' E 001°56'1212.4
2015-Feb-20 11:33N 51°08' E 001°43'1111.4
2015-Feb-20 10:33N 50°58' E 001°34'  

Dump ship's entire track history